sensor_id;sensor_type;location;lat;lon;timestamp;P1;durP1;ratioP1;P2;durP2;ratioP2
19219;SDS011;9744;49.364;7.484;2023-12-14T00:01:17;84.40;;;18.42;;
19219;SDS011;9744;49.364;7.484;2023-12-14T00:03:44;66.45;;;18.02;;
19219;SDS011;9744;49.364;7.484;2023-12-14T00:06:13;40.17;;;15.95;;
19219;SDS011;9744;49.364;7.484;2023-12-14T00:08:40;29.60;;;16.00;;
19219;SDS011;9744;49.364;7.484;2023-12-14T00:11:08;229.20;;;23.48;;
19219;SDS011;9744;49.364;7.484;2023-12-14T00:13:36;144.38;;;18.90;;
19219;SDS011;9744;49.364;7.484;2023-12-14T00:16:04;254.10;;;24.35;;
19219;SDS011;9744;49.364;7.484;2023-12-14T00:18:32;148.27;;;19.95;;
19219;SDS011;9744;49.364;7.484;2023-12-14T00:21:00;106.93;;;22.42;;
19219;SDS011;9744;49.364;7.484;2023-12-14T00:23:29;201.60;;;22.48;;
19219;SDS011;9744;49.364;7.484;2023-12-14T00:25:56;119.32;;;20.60;;
19219;SDS011;9744;49.364;7.484;2023-12-14T00:28:23;303.30;;;25.15;;
19219;SDS011;9744;49.364;7.484;2023-12-14T00:30:51;560.95;;;30.73;;
19219;SDS011;9744;49.364;7.484;2023-12-14T00:33:18;536.45;;;29.15;;
19219;SDS011;9744;49.364;7.484;2023-12-14T00:35:46;432.52;;;27.90;;
19219;SDS011;9744;49.364;7.484;2023-12-14T00:38:13;385.35;;;25.52;;
19219;SDS011;9744;49.364;7.484;2023-12-14T00:40:41;240.38;;;23.58;;
19219;SDS011;9744;49.364;7.484;2023-12-14T00:43:08;501.33;;;28.17;;
19219;SDS011;9744;49.364;7.484;2023-12-14T00:45:36;455.80;;;27.30;;
19219;SDS011;9744;49.364;7.484;2023-12-14T00:48:03;480.60;;;30.95;;
19219;SDS011;9744;49.364;7.484;2023-12-14T00:50:31;514.88;;;29.88;;
19219;SDS011;9744;49.364;7.484;2023-12-14T00:52:58;467.88;;;31.27;;
19219;SDS011;9744;49.364;7.484;2023-12-14T00:55:25;443.17;;;29.73;;
19219;SDS011;9744;49.364;7.484;2023-12-14T00:57:54;553.40;;;33.67;;
19219;SDS011;9744;49.364;7.484;2023-12-14T01:00:21;777.75;;;41.03;;
19219;SDS011;9744;49.364;7.484;2023-12-14T01:02:48;169.73;;;21.58;;
19219;SDS011;9744;49.364;7.484;2023-12-14T01:05:16;693.92;;;37.67;;
19219;SDS011;9744;49.364;7.484;2023-12-14T01:07:43;330.02;;;24.55;;
19219;SDS011;9744;49.364;7.484;2023-12-14T01:10:11;31.95;;;14.95;;
19219;SDS011;9744;49.364;7.484;2023-12-14T01:12:39;278.30;;;22.52;;
19219;SDS011;9744;49.364;7.484;2023-12-14T01:15:09;94.78;;;18.98;;
19219;SDS011;9744;49.364;7.484;2023-12-14T01:17:36;337.13;;;23.25;;
19219;SDS011;9744;49.364;7.484;2023-12-14T01:20:04;221.02;;;22.58;;
19219;SDS011;9744;49.364;7.484;2023-12-14T01:22:32;33.45;;;15.95;;
19219;SDS011;9744;49.364;7.484;2023-12-14T01:25:01;35.20;;;16.00;;
19219;SDS011;9744;49.364;7.484;2023-12-14T01:27:28;40.50;;;17.20;;
19219;SDS011;9744;49.364;7.484;2023-12-14T01:29:56;35.22;;;16.83;;
19219;SDS011;9744;49.364;7.484;2023-12-14T01:32:25;30.40;;;16.15;;
19219;SDS011;9744;49.364;7.484;2023-12-14T01:34:53;40.85;;;18.48;;
19219;SDS011;9744;49.364;7.484;2023-12-14T01:37:20;43.30;;;19.52;;
19219;SDS011;9744;49.364;7.484;2023-12-14T01:39:47;49.38;;;19.98;;
19219;SDS011;9744;49.364;7.484;2023-12-14T01:42:14;52.63;;;19.88;;
19219;SDS011;9744;49.364;7.484;2023-12-14T01:44:42;130.52;;;20.92;;
19219;SDS011;9744;49.364;7.484;2023-12-14T01:47:09;160.45;;;23.15;;
19219;SDS011;9744;49.364;7.484;2023-12-14T01:49:37;553.85;;;30.65;;
19219;SDS011;9744;49.364;7.484;2023-12-14T01:52:06;425.83;;;29.17;;
19219;SDS011;9744;49.364;7.484;2023-12-14T01:54:34;39.00;;;18.20;;
19219;SDS011;9744;49.364;7.484;2023-12-14T01:57:01;27.15;;;14.73;;
19219;SDS011;9744;49.364;7.484;2023-12-14T01:59:29;43.17;;;17.58;;
19219;SDS011;9744;49.364;7.484;2023-12-14T02:01:56;32.88;;;16.48;;
19219;SDS011;9744;49.364;7.484;2023-12-14T02:04:24;30.00;;;16.20;;
19219;SDS011;9744;49.364;7.484;2023-12-14T02:06:54;29.92;;;16.10;;
19219;SDS011;9744;49.364;7.484;2023-12-14T02:09:21;35.15;;;16.88;;
19219;SDS011;9744;49.364;7.484;2023-12-14T02:11:48;34.72;;;16.50;;
19219;SDS011;9744;49.364;7.484;2023-12-14T02:14:15;34.25;;;17.23;;
19219;SDS011;9744;49.364;7.484;2023-12-14T02:16:42;27.80;;;14.93;;
19219;SDS011;9744;49.364;7.484;2023-12-14T02:19:09;31.73;;;15.57;;
19219;SDS011;9744;49.364;7.484;2023-12-14T02:21:37;27.13;;;15.00;;
19219;SDS011;9744;49.364;7.484;2023-12-14T02:24:05;33.78;;;19.00;;
19219;SDS011;9744;49.364;7.484;2023-12-14T02:26:31;33.92;;;17.80;;
19219;SDS011;9744;49.364;7.484;2023-12-14T02:28:59;43.78;;;19.58;;
19219;SDS011;9744;49.364;7.484;2023-12-14T02:31:29;50.58;;;20.48;;
19219;SDS011;9744;49.364;7.484;2023-12-14T02:33:56;457.23;;;28.65;;
19219;SDS011;9744;49.364;7.484;2023-12-14T02:36:23;468.52;;;28.50;;
19219;SDS011;9744;49.364;7.484;2023-12-14T02:38:50;41.75;;;18.95;;
19219;SDS011;9744;49.364;7.484;2023-12-14T02:41:19;355.85;;;28.58;;
19219;SDS011;9744;49.364;7.484;2023-12-14T02:43:46;47.92;;;20.10;;
19219;SDS011;9744;49.364;7.484;2023-12-14T02:46:13;122.78;;;20.35;;
19219;SDS011;9744;49.364;7.484;2023-12-14T02:48:41;510.88;;;31.17;;
19219;SDS011;9744;49.364;7.484;2023-12-14T02:51:12;144.18;;;21.88;;
19219;SDS011;9744;49.364;7.484;2023-12-14T02:53:40;111.20;;;21.55;;
19219;SDS011;9744;49.364;7.484;2023-12-14T02:56:09;37.20;;;17.92;;
19219;SDS011;9744;49.364;7.484;2023-12-14T02:58:38;31.25;;;16.70;;
19219;SDS011;9744;49.364;7.484;2023-12-14T03:01:06;30.20;;;16.17;;
19219;SDS011;9744;49.364;7.484;2023-12-14T03:03:33;35.28;;;16.85;;
19219;SDS011;9744;49.364;7.484;2023-12-14T03:06:00;33.50;;;16.73;;
19219;SDS011;9744;49.364;7.484;2023-12-14T03:08:27;33.35;;;16.95;;
19219;SDS011;9744;49.364;7.484;2023-12-14T03:10:55;32.78;;;15.32;;
19219;SDS011;9744;49.364;7.484;2023-12-14T03:13:22;31.25;;;15.85;;
19219;SDS011;9744;49.364;7.484;2023-12-14T03:15:52;31.95;;;15.82;;
19219;SDS011;9744;49.364;7.484;2023-12-14T03:18:21;27.58;;;15.45;;
19219;SDS011;9744;49.364;7.484;2023-12-14T03:20:48;33.00;;;17.38;;
19219;SDS011;9744;49.364;7.484;2023-12-14T03:23:16;32.22;;;16.65;;
19219;SDS011;9744;49.364;7.484;2023-12-14T03:25:43;31.00;;;16.67;;
19219;SDS011;9744;49.364;7.484;2023-12-14T03:28:10;35.72;;;16.50;;
19219;SDS011;9744;49.364;7.484;2023-12-14T03:30:38;30.40;;;16.92;;
19219;SDS011;9744;49.364;7.484;2023-12-14T03:33:06;32.88;;;15.75;;
19219;SDS011;9744;49.364;7.484;2023-12-14T03:35:34;33.40;;;16.08;;
19219;SDS011;9744;49.364;7.484;2023-12-14T03:38:01;36.35;;;17.75;;
19219;SDS011;9744;49.364;7.484;2023-12-14T03:40:28;39.78;;;19.05;;
19219;SDS011;9744;49.364;7.484;2023-12-14T03:42:56;35.22;;;17.42;;
19219;SDS011;9744;49.364;7.484;2023-12-14T03:45:23;32.55;;;16.48;;
19219;SDS011;9744;49.364;7.484;2023-12-14T03:47:50;31.00;;;16.42;;
19219;SDS011;9744;49.364;7.484;2023-12-14T03:50:19;26.50;;;14.93;;
19219;SDS011;9744;49.364;7.484;2023-12-14T03:52:46;26.80;;;14.27;;
19219;SDS011;9744;49.364;7.484;2023-12-14T03:55:13;25.33;;;13.82;;
19219;SDS011;9744;49.364;7.484;2023-12-14T03:57:41;25.38;;;14.05;;
19219;SDS011;9744;49.364;7.484;2023-12-14T04:00:09;23.92;;;13.07;;
19219;SDS011;9744;49.364;7.484;2023-12-14T04:02:38;25.52;;;13.50;;
19219;SDS011;9744;49.364;7.484;2023-12-14T04:05:06;28.58;;;14.23;;
19219;SDS011;9744;49.364;7.484;2023-12-14T04:07:35;27.25;;;14.80;;
19219;SDS011;9744;49.364;7.484;2023-12-14T04:10:06;26.88;;;14.27;;
19219;SDS011;9744;49.364;7.484;2023-12-14T04:12:34;28.10;;;14.73;;
19219;SDS011;9744;49.364;7.484;2023-12-14T04:15:01;29.05;;;14.88;;
19219;SDS011;9744;49.364;7.484;2023-12-14T04:17:30;29.75;;;14.65;;
19219;SDS011;9744;49.364;7.484;2023-12-14T04:19:58;32.38;;;16.02;;
19219;SDS011;9744;49.364;7.484;2023-12-14T04:22:26;31.63;;;16.02;;
19219;SDS011;9744;49.364;7.484;2023-12-14T04:24:55;31.05;;;15.05;;
19219;SDS011;9744;49.364;7.484;2023-12-14T04:27:22;27.17;;;13.98;;
19219;SDS011;9744;49.364;7.484;2023-12-14T04:29:53;31.13;;;14.73;;
19219;SDS011;9744;49.364;7.484;2023-12-14T04:32:20;28.95;;;14.57;;
19219;SDS011;9744;49.364;7.484;2023-12-14T04:34:48;28.55;;;14.40;;
19219;SDS011;9744;49.364;7.484;2023-12-14T04:37:15;29.77;;;14.82;;
19219;SDS011;9744;49.364;7.484;2023-12-14T04:39:42;29.30;;;14.55;;
19219;SDS011;9744;49.364;7.484;2023-12-14T04:42:11;26.85;;;13.80;;
19219;SDS011;9744;49.364;7.484;2023-12-14T04:44:38;27.85;;;14.07;;
19219;SDS011;9744;49.364;7.484;2023-12-14T04:47:05;24.80;;;12.88;;
19219;SDS011;9744;49.364;7.484;2023-12-14T04:49:34;22.80;;;12.07;;
19219;SDS011;9744;49.364;7.484;2023-12-14T04:52:02;22.65;;;12.32;;
19219;SDS011;9744;49.364;7.484;2023-12-14T04:54:29;30.23;;;13.43;;
19219;SDS011;9744;49.364;7.484;2023-12-14T04:56:56;27.20;;;12.30;;
19219;SDS011;9744;49.364;7.484;2023-12-14T04:59:25;23.98;;;12.30;;
19219;SDS011;9744;49.364;7.484;2023-12-14T05:01:52;26.35;;;13.25;;
19219;SDS011;9744;49.364;7.484;2023-12-14T05:04:20;26.58;;;13.15;;
19219;SDS011;9744;49.364;7.484;2023-12-14T05:06:47;26.52;;;13.95;;
19219;SDS011;9744;49.364;7.484;2023-12-14T05:09:15;33.45;;;14.82;;
19219;SDS011;9744;49.364;7.484;2023-12-14T05:11:42;29.38;;;13.73;;
19219;SDS011;9744;49.364;7.484;2023-12-14T05:14:10;36.13;;;16.65;;
19219;SDS011;9744;49.364;7.484;2023-12-14T05:16:38;35.15;;;16.13;;
19219;SDS011;9744;49.364;7.484;2023-12-14T05:19:06;33.53;;;17.92;;
19219;SDS011;9744;49.364;7.484;2023-12-14T05:21:33;33.78;;;16.02;;
19219;SDS011;9744;49.364;7.484;2023-12-14T05:24:00;32.22;;;15.90;;
19219;SDS011;9744;49.364;7.484;2023-12-14T05:26:28;27.42;;;14.15;;
19219;SDS011;9744;49.364;7.484;2023-12-14T05:28:55;28.02;;;14.05;;
19219;SDS011;9744;49.364;7.484;2023-12-14T05:31:22;31.92;;;14.15;;
19219;SDS011;9744;49.364;7.484;2023-12-14T05:33:51;28.58;;;12.57;;
19219;SDS011;9744;49.364;7.484;2023-12-14T05:36:18;25.92;;;12.75;;
19219;SDS011;9744;49.364;7.484;2023-12-14T05:38:45;24.83;;;13.32;;
19219;SDS011;9744;49.364;7.484;2023-12-14T05:41:13;27.38;;;12.90;;
19219;SDS011;9744;49.364;7.484;2023-12-14T05:43:41;25.98;;;14.00;;
19219;SDS011;9744;49.364;7.484;2023-12-14T05:46:08;25.08;;;12.55;;
19219;SDS011;9744;49.364;7.484;2023-12-14T05:48:37;23.95;;;12.23;;
19219;SDS011;9744;49.364;7.484;2023-12-14T05:51:06;24.80;;;12.55;;
19219;SDS011;9744;49.364;7.484;2023-12-14T05:53:33;23.67;;;13.18;;
19219;SDS011;9744;49.364;7.484;2023-12-14T05:56:05;26.73;;;12.68;;
19219;SDS011;9744;49.364;7.484;2023-12-14T05:58:34;28.33;;;13.25;;
19219;SDS011;9744;49.364;7.484;2023-12-14T06:01:01;28.15;;;15.80;;
19219;SDS011;9744;49.364;7.484;2023-12-14T06:03:29;28.80;;;16.25;;
19219;SDS011;9744;49.364;7.484;2023-12-14T06:05:57;30.17;;;17.08;;
19219;SDS011;9744;49.364;7.484;2023-12-14T06:08:25;31.73;;;16.90;;
19219;SDS011;9744;49.364;7.484;2023-12-14T06:10:52;35.90;;;21.05;;
19219;SDS011;9744;49.364;7.484;2023-12-14T06:13:19;35.70;;;19.80;;
19219;SDS011;9744;49.364;7.484;2023-12-14T06:15:47;34.38;;;19.85;;
19219;SDS011;9744;49.364;7.484;2023-12-14T06:18:14;29.65;;;17.05;;
19219;SDS011;9744;49.364;7.484;2023-12-14T06:20:41;31.45;;;18.02;;
19219;SDS011;9744;49.364;7.484;2023-12-14T06:23:08;29.88;;;16.80;;
19219;SDS011;9744;49.364;7.484;2023-12-14T06:25:37;23.77;;;13.60;;
19219;SDS011;9744;49.364;7.484;2023-12-14T06:28:04;22.08;;;11.35;;
19219;SDS011;9744;49.364;7.484;2023-12-14T06:30:32;18.27;;;10.50;;
19219;SDS011;9744;49.364;7.484;2023-12-14T06:32:59;20.50;;;9.82;;
19219;SDS011;9744;49.364;7.484;2023-12-14T06:35:26;17.35;;;9.73;;
19219;SDS011;9744;49.364;7.484;2023-12-14T06:37:53;18.95;;;9.57;;
19219;SDS011;9744;49.364;7.484;2023-12-14T06:40:20;19.15;;;9.73;;
19219;SDS011;9744;49.364;7.484;2023-12-14T06:42:49;18.15;;;9.63;;
19219;SDS011;9744;49.364;7.484;2023-12-14T06:45:16;17.88;;;9.50;;
19219;SDS011;9744;49.364;7.484;2023-12-14T06:47:44;15.82;;;9.25;;
19219;SDS011;9744;49.364;7.484;2023-12-14T06:50:12;17.05;;;9.65;;
19219;SDS011;9744;49.364;7.484;2023-12-14T06:52:39;19.60;;;9.88;;
19219;SDS011;9744;49.364;7.484;2023-12-14T06:55:07;21.83;;;10.25;;
19219;SDS011;9744;49.364;7.484;2023-12-14T06:57:34;24.70;;;12.45;;
19219;SDS011;9744;49.364;7.484;2023-12-14T07:00:04;20.45;;;11.63;;
19219;SDS011;9744;49.364;7.484;2023-12-14T07:02:31;24.55;;;14.00;;
19219;SDS011;9744;49.364;7.484;2023-12-14T07:04:59;25.85;;;15.32;;
19219;SDS011;9744;49.364;7.484;2023-12-14T07:07:26;28.40;;;15.00;;
19219;SDS011;9744;49.364;7.484;2023-12-14T07:09:53;28.17;;;13.57;;
19219;SDS011;9744;49.364;7.484;2023-12-14T07:12:22;27.20;;;14.55;;
19219;SDS011;9744;49.364;7.484;2023-12-14T07:14:50;24.67;;;14.90;;
19219;SDS011;9744;49.364;7.484;2023-12-14T07:17:18;30.05;;;14.85;;
19219;SDS011;9744;49.364;7.484;2023-12-14T07:19:45;28.23;;;14.63;;
19219;SDS011;9744;49.364;7.484;2023-12-14T07:22:12;29.92;;;13.77;;
19219;SDS011;9744;49.364;7.484;2023-12-14T07:24:39;22.45;;;13.35;;
19219;SDS011;9744;49.364;7.484;2023-12-14T07:27:06;27.13;;;13.77;;
19219;SDS011;9744;49.364;7.484;2023-12-14T07:29:33;24.88;;;13.50;;
19219;SDS011;9744;49.364;7.484;2023-12-14T07:32:01;22.23;;;12.52;;
19219;SDS011;9744;49.364;7.484;2023-12-14T07:34:29;22.60;;;11.52;;
19219;SDS011;9744;49.364;7.484;2023-12-14T07:36:57;21.98;;;12.23;;
19219;SDS011;9744;49.364;7.484;2023-12-14T07:39:24;23.45;;;11.95;;
19219;SDS011;9744;49.364;7.484;2023-12-14T07:41:51;22.27;;;12.00;;
19219;SDS011;9744;49.364;7.484;2023-12-14T07:44:18;21.70;;;11.85;;
19219;SDS011;9744;49.364;7.484;2023-12-14T07:46:46;22.55;;;11.98;;
19219;SDS011;9744;49.364;7.484;2023-12-14T07:49:14;23.25;;;12.02;;
19219;SDS011;9744;49.364;7.484;2023-12-14T07:51:42;19.02;;;10.73;;
19219;SDS011;9744;49.364;7.484;2023-12-14T07:54:10;23.77;;;11.45;;
19219;SDS011;9744;49.364;7.484;2023-12-14T07:56:37;23.63;;;13.25;;
19219;SDS011;9744;49.364;7.484;2023-12-14T07:59:04;20.88;;;11.82;;
19219;SDS011;9744;49.364;7.484;2023-12-14T08:01:33;22.33;;;11.93;;
19219;SDS011;9744;49.364;7.484;2023-12-14T08:04:00;25.92;;;13.57;;
19219;SDS011;9744;49.364;7.484;2023-12-14T08:06:27;25.27;;;13.38;;
19219;SDS011;9744;49.364;7.484;2023-12-14T08:08:56;19.05;;;10.80;;
19219;SDS011;9744;49.364;7.484;2023-12-14T08:11:24;20.33;;;10.85;;
19219;SDS011;9744;49.364;7.484;2023-12-14T08:13:51;16.60;;;10.32;;
19219;SDS011;9744;49.364;7.484;2023-12-14T08:16:19;17.52;;;10.27;;
19219;SDS011;9744;49.364;7.484;2023-12-14T08:18:47;16.95;;;10.48;;
19219;SDS011;9744;49.364;7.484;2023-12-14T08:21:15;19.33;;;10.43;;
19219;SDS011;9744;49.364;7.484;2023-12-14T08:23:43;27.27;;;14.35;;
19219;SDS011;9744;49.364;7.484;2023-12-14T08:26:11;24.48;;;12.60;;
19219;SDS011;9744;49.364;7.484;2023-12-14T08:28:39;22.75;;;11.93;;
19219;SDS011;9744;49.364;7.484;2023-12-14T08:31:06;23.05;;;12.32;;
19219;SDS011;9744;49.364;7.484;2023-12-14T08:33:35;25.08;;;13.05;;
19219;SDS011;9744;49.364;7.484;2023-12-14T08:36:02;24.75;;;13.25;;
19219;SDS011;9744;49.364;7.484;2023-12-14T08:38:31;22.65;;;12.75;;
19219;SDS011;9744;49.364;7.484;2023-12-14T08:40:58;27.85;;;12.60;;
19219;SDS011;9744;49.364;7.484;2023-12-14T08:43:28;18.95;;;11.27;;
19219;SDS011;9744;49.364;7.484;2023-12-14T08:45:56;18.60;;;11.00;;
19219;SDS011;9744;49.364;7.484;2023-12-14T08:48:23;16.75;;;9.10;;
19219;SDS011;9744;49.364;7.484;2023-12-14T08:51:02;18.95;;;9.70;;
19219;SDS011;9744;49.364;7.484;2023-12-14T08:53:43;16.88;;;9.45;;
19219;SDS011;9744;49.364;7.484;2023-12-14T08:56:10;19.65;;;10.18;;
19219;SDS011;9744;49.364;7.484;2023-12-14T08:58:39;21.27;;;10.65;;
19219;SDS011;9744;49.364;7.484;2023-12-14T09:01:06;20.35;;;11.02;;
19219;SDS011;9744;49.364;7.484;2023-12-14T09:03:33;17.17;;;9.50;;
19219;SDS011;9744;49.364;7.484;2023-12-14T09:06:00;19.48;;;10.18;;
19219;SDS011;9744;49.364;7.484;2023-12-14T09:11:35;18.13;;;9.27;;
19219;SDS011;9744;49.364;7.484;2023-12-14T09:14:04;16.48;;;9.98;;
19219;SDS011;9744;49.364;7.484;2023-12-14T09:16:39;15.63;;;8.82;;
19219;SDS011;9744;49.364;7.484;2023-12-14T09:22:21;15.82;;;8.00;;
19219;SDS011;9744;49.364;7.484;2023-12-14T09:24:48;17.92;;;9.38;;
19219;SDS011;9744;49.364;7.484;2023-12-14T09:27:16;16.17;;;8.52;;
19219;SDS011;9744;49.364;7.484;2023-12-14T09:30:32;16.67;;;8.73;;
19219;SDS011;9744;49.364;7.484;2023-12-14T09:33:00;17.38;;;9.02;;
19219;SDS011;9744;49.364;7.484;2023-12-14T09:35:27;15.55;;;9.50;;
19219;SDS011;9744;49.364;7.484;2023-12-14T09:37:55;17.45;;;9.60;;
19219;SDS011;9744;49.364;7.484;2023-12-14T09:40:22;20.38;;;9.93;;
19219;SDS011;9744;49.364;7.484;2023-12-14T09:42:49;19.75;;;9.77;;
19219;SDS011;9744;49.364;7.484;2023-12-14T09:45:44;18.20;;;9.68;;
19219;SDS011;9744;49.364;7.484;2023-12-14T09:48:13;20.48;;;10.82;;
19219;SDS011;9744;49.364;7.484;2023-12-14T09:50:42;18.00;;;10.88;;
19219;SDS011;9744;49.364;7.484;2023-12-14T09:53:10;24.08;;;12.57;;
19219;SDS011;9744;49.364;7.484;2023-12-14T09:55:38;20.85;;;11.50;;
19219;SDS011;9744;49.364;7.484;2023-12-14T09:58:05;19.17;;;11.20;;
19219;SDS011;9744;49.364;7.484;2023-12-14T10:00:35;23.63;;;12.93;;
19219;SDS011;9744;49.364;7.484;2023-12-14T10:03:22;23.77;;;12.20;;
19219;SDS011;9744;49.364;7.484;2023-12-14T10:08:53;21.92;;;11.23;;
19219;SDS011;9744;49.364;7.484;2023-12-14T10:11:22;20.25;;;11.10;;
19219;SDS011;9744;49.364;7.484;2023-12-14T10:13:49;22.10;;;12.43;;
19219;SDS011;9744;49.364;7.484;2023-12-14T10:16:29;25.60;;;11.80;;
19219;SDS011;9744;49.364;7.484;2023-12-14T10:19:00;24.30;;;11.35;;
19219;SDS011;9744;49.364;7.484;2023-12-14T10:27:38;27.15;;;13.50;;
19219;SDS011;9744;49.364;7.484;2023-12-14T10:30:59;24.50;;;11.88;;
19219;SDS011;9744;49.364;7.484;2023-12-14T10:33:26;22.48;;;11.38;;
19219;SDS011;9744;49.364;7.484;2023-12-14T10:35:55;21.05;;;10.43;;
19219;SDS011;9744;49.364;7.484;2023-12-14T10:38:23;20.38;;;10.82;;
19219;SDS011;9744;49.364;7.484;2023-12-14T10:40:52;21.63;;;9.77;;
19219;SDS011;9744;49.364;7.484;2023-12-14T10:43:22;17.77;;;9.10;;
19219;SDS011;9744;49.364;7.484;2023-12-14T10:45:50;17.50;;;9.55;;
19219;SDS011;9744;49.364;7.484;2023-12-14T10:48:20;17.10;;;9.52;;
19219;SDS011;9744;49.364;7.484;2023-12-14T10:50:48;19.65;;;9.88;;
19219;SDS011;9744;49.364;7.484;2023-12-14T10:53:19;20.80;;;9.63;;
19219;SDS011;9744;49.364;7.484;2023-12-14T10:55:51;17.88;;;9.75;;
19219;SDS011;9744;49.364;7.484;2023-12-14T10:58:20;18.90;;;10.68;;
19219;SDS011;9744;49.364;7.484;2023-12-14T11:00:57;19.52;;;10.63;;
19219;SDS011;9744;49.364;7.484;2023-12-14T11:03:26;24.95;;;13.98;;
19219;SDS011;9744;49.364;7.484;2023-12-14T11:05:59;31.80;;;16.88;;
19219;SDS011;9744;49.364;7.484;2023-12-14T11:08:28;33.40;;;18.00;;
19219;SDS011;9744;49.364;7.484;2023-12-14T11:11:00;36.47;;;20.38;;
19219;SDS011;9744;49.364;7.484;2023-12-14T11:13:36;27.50;;;15.98;;
19219;SDS011;9744;49.364;7.484;2023-12-14T11:16:05;22.33;;;13.13;;
19219;SDS011;9744;49.364;7.484;2023-12-14T11:18:34;21.45;;;11.55;;
19219;SDS011;9744;49.364;7.484;2023-12-14T11:21:01;20.88;;;11.70;;
19219;SDS011;9744;49.364;7.484;2023-12-14T11:23:31;23.00;;;12.23;;
19219;SDS011;9744;49.364;7.484;2023-12-14T11:26:04;20.40;;;11.18;;
19219;SDS011;9744;49.364;7.484;2023-12-14T11:28:33;20.60;;;11.95;;
19219;SDS011;9744;49.364;7.484;2023-12-14T11:31:02;23.23;;;11.63;;
19219;SDS011;9744;49.364;7.484;2023-12-14T11:33:32;21.48;;;11.48;;
19219;SDS011;9744;49.364;7.484;2023-12-14T11:36:01;22.60;;;11.52;;
19219;SDS011;9744;49.364;7.484;2023-12-14T11:38:29;19.92;;;11.80;;
19219;SDS011;9744;49.364;7.484;2023-12-14T11:40:59;21.83;;;11.55;;
19219;SDS011;9744;49.364;7.484;2023-12-14T11:43:26;20.10;;;10.63;;
19219;SDS011;9744;49.364;7.484;2023-12-14T11:45:53;18.35;;;9.50;;
19219;SDS011;9744;49.364;7.484;2023-12-14T11:48:21;18.15;;;9.82;;
19219;SDS011;9744;49.364;7.484;2023-12-14T11:50:49;19.17;;;11.13;;
19219;SDS011;9744;49.364;7.484;2023-12-14T11:53:16;18.75;;;10.35;;
19219;SDS011;9744;49.364;7.484;2023-12-14T11:55:45;14.77;;;8.90;;
19219;SDS011;9744;49.364;7.484;2023-12-14T11:58:13;19.05;;;8.05;;
19219;SDS011;9744;49.364;7.484;2023-12-14T12:00:42;16.80;;;8.35;;
19219;SDS011;9744;49.364;7.484;2023-12-14T12:03:12;16.98;;;7.68;;
19219;SDS011;9744;49.364;7.484;2023-12-14T12:05:42;11.48;;;6.90;;
19219;SDS011;9744;49.364;7.484;2023-12-14T12:08:10;12.02;;;6.50;;
19219;SDS011;9744;49.364;7.484;2023-12-14T12:10:38;13.52;;;7.18;;
19219;SDS011;9744;49.364;7.484;2023-12-14T12:13:11;12.82;;;6.55;;
19219;SDS011;9744;49.364;7.484;2023-12-14T12:15:39;11.68;;;5.75;;
19219;SDS011;9744;49.364;7.484;2023-12-14T12:18:07;10.30;;;5.50;;
19219;SDS011;9744;49.364;7.484;2023-12-14T12:23:32;9.93;;;5.13;;
19219;SDS011;9744;49.364;7.484;2023-12-14T12:25:59;11.52;;;5.10;;
19219;SDS011;9744;49.364;7.484;2023-12-14T12:28:28;9.05;;;4.72;;
19219;SDS011;9744;49.364;7.484;2023-12-14T12:30:56;9.68;;;5.30;;
19219;SDS011;9744;49.364;7.484;2023-12-14T12:33:25;8.73;;;4.38;;
19219;SDS011;9744;49.364;7.484;2023-12-14T12:35:52;5.18;;;3.65;;
19219;SDS011;9744;49.364;7.484;2023-12-14T12:38:20;6.45;;;3.83;;
19219;SDS011;9744;49.364;7.484;2023-12-14T12:40:49;6.32;;;3.92;;
19219;SDS011;9744;49.364;7.484;2023-12-14T12:43:16;6.15;;;3.90;;
19219;SDS011;9744;49.364;7.484;2023-12-14T12:45:45;6.68;;;4.00;;
19219;SDS011;9744;49.364;7.484;2023-12-14T12:48:12;10.15;;;4.72;;
19219;SDS011;9744;49.364;7.484;2023-12-14T12:50:40;6.63;;;4.15;;
19219;SDS011;9744;49.364;7.484;2023-12-14T12:53:07;8.88;;;5.57;;
19219;SDS011;9744;49.364;7.484;2023-12-14T12:55:34;10.38;;;5.50;;
19219;SDS011;9744;49.364;7.484;2023-12-14T12:58:01;12.68;;;6.40;;
19219;SDS011;9744;49.364;7.484;2023-12-14T13:03:05;9.15;;;5.10;;
19219;SDS011;9744;49.364;7.484;2023-12-14T13:05:33;7.20;;;4.38;;
19219;SDS011;9744;49.364;7.484;2023-12-14T13:08:00;5.47;;;3.35;;
19219;SDS011;9744;49.364;7.484;2023-12-14T13:10:27;6.38;;;4.47;;
19219;SDS011;9744;49.364;7.484;2023-12-14T13:12:54;53.58;;;25.45;;
19219;SDS011;9744;49.364;7.484;2023-12-14T13:15:22;21.65;;;11.48;;
19219;SDS011;9744;49.364;7.484;2023-12-14T13:17:50;18.30;;;10.48;;
19219;SDS011;9744;49.364;7.484;2023-12-14T13:20:19;8.77;;;4.45;;
19219;SDS011;9744;49.364;7.484;2023-12-14T13:22:49;5.95;;;3.53;;
19219;SDS011;9744;49.364;7.484;2023-12-14T13:28:34;6.32;;;3.70;;
19219;SDS011;9744;49.364;7.484;2023-12-14T13:31:01;7.43;;;3.28;;
19219;SDS011;9744;49.364;7.484;2023-12-14T13:33:29;8.15;;;4.20;;
19219;SDS011;9744;49.364;7.484;2023-12-14T13:45:11;5.53;;;2.78;;
19219;SDS011;9744;49.364;7.484;2023-12-14T13:47:41;7.53;;;3.60;;
19219;SDS011;9744;49.364;7.484;2023-12-14T13:50:14;8.02;;;4.07;;
19219;SDS011;9744;49.364;7.484;2023-12-14T13:56:15;3.95;;;2.70;;
19219;SDS011;9744;49.364;7.484;2023-12-14T14:15:47;4.47;;;2.30;;
19219;SDS011;9744;49.364;7.484;2023-12-14T14:18:57;5.00;;;2.20;;
19219;SDS011;9744;49.364;7.484;2023-12-14T14:22:11;3.03;;;2.17;;
19219;SDS011;9744;49.364;7.484;2023-12-14T14:24:39;3.72;;;2.90;;
19219;SDS011;9744;49.364;7.484;2023-12-14T14:27:06;5.35;;;2.80;;
19219;SDS011;9744;49.364;7.484;2023-12-14T14:46:52;5.55;;;2.83;;
19219;SDS011;9744;49.364;7.484;2023-12-14T14:49:22;5.90;;;3.72;;
19219;SDS011;9744;49.364;7.484;2023-12-14T14:51:59;4.93;;;3.33;;
19219;SDS011;9744;49.364;7.484;2023-12-14T14:54:54;7.85;;;4.07;;
19219;SDS011;9744;49.364;7.484;2023-12-14T14:57:21;4.30;;;3.00;;
19219;SDS011;9744;49.364;7.484;2023-12-14T14:59:50;6.63;;;3.33;;
19219;SDS011;9744;49.364;7.484;2023-12-14T15:02:18;5.55;;;3.20;;
19219;SDS011;9744;49.364;7.484;2023-12-14T15:04:46;5.40;;;3.30;;
19219;SDS011;9744;49.364;7.484;2023-12-14T15:07:13;5.90;;;3.40;;
19219;SDS011;9744;49.364;7.484;2023-12-14T15:09:41;6.78;;;3.35;;
19219;SDS011;9744;49.364;7.484;2023-12-14T15:12:10;6.68;;;3.85;;
19219;SDS011;9744;49.364;7.484;2023-12-14T15:14:37;6.45;;;3.80;;
19219;SDS011;9744;49.364;7.484;2023-12-14T15:17:06;6.13;;;3.83;;
19219;SDS011;9744;49.364;7.484;2023-12-14T15:19:33;6.13;;;3.65;;
19219;SDS011;9744;49.364;7.484;2023-12-14T15:22:01;5.30;;;3.50;;
19219;SDS011;9744;49.364;7.484;2023-12-14T15:24:29;6.95;;;3.42;;
19219;SDS011;9744;49.364;7.484;2023-12-14T15:26:59;6.00;;;3.50;;
19219;SDS011;9744;49.364;7.484;2023-12-14T15:29:29;5.60;;;3.30;;
19219;SDS011;9744;49.364;7.484;2023-12-14T15:50:03;13.98;;;6.03;;
19219;SDS011;9744;49.364;7.484;2023-12-14T15:53:04;9.18;;;4.70;;
19219;SDS011;9744;49.364;7.484;2023-12-14T15:55:34;103.10;;;36.95;;
19219;SDS011;9744;49.364;7.484;2023-12-14T16:01:10;46.30;;;20.23;;
19219;SDS011;9744;49.364;7.484;2023-12-14T16:10:04;64.32;;;27.25;;
19219;SDS011;9744;49.364;7.484;2023-12-14T16:12:34;15.85;;;8.00;;
19219;SDS011;9744;49.364;7.484;2023-12-14T16:20:38;6.28;;;4.30;;
19219;SDS011;9744;49.364;7.484;2023-12-14T16:23:05;12.82;;;6.35;;
19219;SDS011;9744;49.364;7.484;2023-12-14T16:25:33;14.55;;;6.32;;
19219;SDS011;9744;49.364;7.484;2023-12-14T16:36:25;37.35;;;24.30;;
19219;SDS011;9744;49.364;7.484;2023-12-14T16:38:53;13.52;;;9.10;;
19219;SDS011;9744;49.364;7.484;2023-12-14T16:44:19;5.10;;;3.70;;